createdAt,value
2023-04-12T00:00:55.786Z,99065.69
2023-04-12T00:03:22.825Z,99055.66
2023-04-12T00:05:54.816Z,99059.16
2023-04-12T00:08:26.673Z,99058.53
2023-04-12T00:10:53.691Z,99055.25
2023-04-12T00:13:20.814Z,99062.84
2023-04-12T00:15:47.579Z,99065.09
2023-04-12T00:18:14.296Z,99064.69
2023-04-12T00:20:41.062Z,99056.69
2023-04-12T00:23:09.820Z,99053.66
2023-04-12T00:25:39.348Z,99041.56
2023-04-12T00:28:06.410Z,99048.94
2023-04-12T00:30:33.212Z,99040.34
2023-04-12T00:32:59.968Z,99036.03
2023-04-12T00:35:26.749Z,99037.91
2023-04-12T00:37:53.634Z,99031.94
2023-04-12T00:40:21.061Z,99035.63
2023-04-12T00:42:47.716Z,99026.44
2023-04-12T00:45:14.611Z,99037.47
2023-04-12T00:47:43.443Z,99024.59
2023-04-12T00:50:11.024Z,99021.50
2023-04-12T00:52:38.123Z,99015.41
2023-04-12T00:55:05.430Z,99016.19
2023-04-12T00:57:37.128Z,99014.78
2023-04-12T01:00:13.028Z,99016.19
2023-04-12T01:02:48.312Z,99016.81
2023-04-12T01:05:22.614Z,99006.16
2023-04-12T01:08:06.384Z,99018.22
2023-04-12T01:10:44.094Z,99011.66
2023-04-12T01:13:31.368Z,99015.13
2023-04-12T01:16:12.739Z,99008.56
2023-04-12T01:18:42.022Z,99009.59
2023-04-12T01:21:15.668Z,99009.81
2023-04-12T01:23:45.633Z,99008.59
2023-04-12T01:26:36.171Z,99008.38
2023-04-12T01:29:08.300Z,99005.69
2023-04-12T01:31:35.663Z,99007.38
2023-04-12T01:34:04.221Z,98998.16
2023-04-12T01:36:31.595Z,98999.97
2023-04-12T01:38:58.350Z,98991.41
2023-04-12T01:41:25.128Z,98989.75
2023-04-12T01:43:51.851Z,98980.34
2023-04-12T01:46:20.481Z,98981.59
2023-04-12T01:48:52.036Z,98991.38
2023-04-12T01:51:50.349Z,98995.88
2023-04-12T01:54:22.173Z,98987.84
2023-04-12T01:56:58.809Z,98987.03
2023-04-12T01:59:28.384Z,98989.28
2023-04-12T02:01:55.411Z,98983.75
2023-04-12T02:04:22.524Z,98995.59
2023-04-12T02:06:49.310Z,98994.53
2023-04-12T02:09:16.121Z,98992.06
2023-04-12T02:11:47.511Z,98998.34
2023-04-12T02:14:14.249Z,98990.31
2023-04-12T02:16:42.528Z,98986.25
2023-04-12T02:19:10.702Z,98995.00
2023-04-12T02:21:45.071Z,98990.09
2023-04-12T02:24:12.624Z,98985.59
2023-04-12T02:26:40.190Z,98990.22
2023-04-12T02:29:09.797Z,98987.31
2023-04-12T02:31:39.159Z,98979.66
2023-04-12T02:34:09.089Z,98990.06
2023-04-12T02:36:38.444Z,98974.69
2023-04-12T02:39:05.567Z,98975.69
2023-04-12T02:41:34.787Z,98971.72
2023-04-12T02:44:02.118Z,98974.59
2023-04-12T02:46:29.043Z,98972.84
2023-04-12T02:48:58.322Z,98975.81
2023-04-12T02:51:32.770Z,98977.00
2023-04-12T02:54:01.329Z,98972.84
2023-04-12T02:56:36.161Z,98976.28
2023-04-12T02:59:11.572Z,98971.31
2023-04-12T03:02:01.371Z,98970.81
2023-04-12T03:04:32.918Z,98974.00
2023-04-12T03:07:02.121Z,98973.75
2023-04-12T03:09:34.976Z,98964.91
2023-04-12T03:12:03.063Z,98964.66
2023-04-12T03:14:34.163Z,98961.56
2023-04-12T03:17:01.201Z,98966.03
2023-04-12T03:19:29.048Z,98951.28
2023-04-12T03:21:56.057Z,98955.69
2023-04-12T03:24:23.634Z,98954.44
2023-04-12T03:26:52.417Z,98944.97
2023-04-12T03:29:23.386Z,98945.53
2023-04-12T03:31:52.385Z,98943.81
2023-04-12T03:34:19.607Z,98932.50
2023-04-12T03:36:51.345Z,98951.56
2023-04-12T03:39:31.005Z,98938.75
2023-04-12T03:41:57.802Z,98945.19
2023-04-12T03:44:28.374Z,98942.94
2023-04-12T03:46:58.449Z,98947.22
2023-04-12T03:49:28.446Z,98938.63
2023-04-12T03:51:55.497Z,98943.03
2023-04-12T03:54:23.054Z,98929.06
2023-04-12T03:56:56.839Z,98936.38
2023-04-12T03:59:49.911Z,98937.00
2023-04-12T04:02:21.174Z,98941.22
2023-04-12T04:04:51.333Z,98950.41
2023-04-12T04:07:25.868Z,98943.84
2023-04-12T04:09:55.545Z,98938.75
2023-04-12T04:12:23.917Z,98937.91
2023-04-12T04:14:54.114Z,98941.09
2023-04-12T04:17:33.708Z,98943.56
2023-04-12T04:20:00.461Z,98933.63
2023-04-12T04:22:29.517Z,98935.66
2023-04-12T04:25:00.684Z,98930.63
2023-04-12T04:27:30.658Z,98926.19
2023-04-12T04:29:59.618Z,98933.44
2023-04-12T04:32:26.578Z,98930.63
2023-04-12T04:34:59.972Z,98938.00
2023-04-12T04:37:37.472Z,98944.75
2023-04-12T04:40:08.858Z,98940.94
2023-04-12T04:42:39.777Z,98944.31
2023-04-12T04:45:13.708Z,98940.28
2023-04-12T04:47:43.290Z,98945.84
2023-04-12T04:50:10.472Z,98942.94
2023-04-12T04:52:37.854Z,98944.72
2023-04-12T04:55:11.411Z,98949.34
2023-04-12T04:57:41.243Z,98940.31
2023-04-12T05:00:11.721Z,98939.63
2023-04-12T05:02:43.749Z,98938.19
2023-04-12T05:05:14.087Z,98942.38
2023-04-12T05:07:43.520Z,98943.50
2023-04-12T05:10:11.084Z,98942.66
2023-04-12T05:12:40.835Z,98956.84
2023-04-12T05:15:11.578Z,98955.97
2023-04-12T05:17:40.390Z,98956.88
2023-04-12T05:20:08.101Z,98957.19
2023-04-12T05:22:35.697Z,98962.97
2023-04-12T05:25:03.685Z,98973.47
2023-04-12T05:27:34.093Z,98961.13
2023-04-12T05:30:02.669Z,98967.31
2023-04-12T05:32:29.390Z,98976.38
2023-04-12T05:34:56.658Z,98966.81
2023-04-12T05:37:28.992Z,98984.25
2023-04-12T05:39:55.748Z,98979.34
2023-04-12T05:42:22.384Z,98975.50
2023-04-12T05:44:50.869Z,98974.69
2023-04-12T05:47:20.489Z,98968.31
2023-04-12T05:49:48.021Z,98978.94
2023-04-12T05:52:14.720Z,98972.97
2023-04-12T05:54:41.892Z,98963.72
2023-04-12T05:57:12.688Z,98961.38
2023-04-12T05:59:39.452Z,98960.09
2023-04-12T06:02:06.342Z,98970.03
2023-04-12T06:04:48.705Z,98969.56
2023-04-12T06:07:19.384Z,98970.50
2023-04-12T06:09:46.246Z,98969.16
2023-04-12T06:12:13.093Z,98965.78
2023-04-12T06:14:42.313Z,98963.03
2023-04-12T06:17:09.201Z,98968.63
2023-04-12T06:19:35.951Z,98967.94
2023-04-12T06:22:02.631Z,98962.66
2023-04-12T06:24:34.081Z,98969.31
2023-04-12T06:27:00.823Z,98961.38
2023-04-12T06:29:27.793Z,98955.69
2023-04-12T06:31:56.794Z,98957.41
2023-04-12T06:34:23.607Z,98950.31
2023-04-12T06:36:51.941Z,98948.31
2023-04-12T06:39:18.570Z,98948.94
2023-04-12T06:41:47.413Z,98954.97
2023-04-12T06:44:19.261Z,98945.94
2023-04-12T06:46:46.562Z,98943.75
2023-04-12T06:49:13.277Z,98940.06
2023-04-12T06:51:39.878Z,98942.31
2023-04-12T06:54:06.537Z,98942.31
2023-04-12T06:56:33.244Z,98944.31
2023-04-12T06:59:00.262Z,98944.56
2023-04-12T07:01:27.235Z,98936.03
2023-04-12T07:03:53.997Z,98932.66
2023-04-12T07:06:25.623Z,98940.47
2023-04-12T07:08:53.108Z,98941.72
2023-04-12T07:11:22.700Z,98931.78
2023-04-12T07:13:51.895Z,98919.16
2023-04-12T07:16:18.747Z,98915.03
2023-04-12T07:18:48.111Z,98909.16
2023-04-12T07:21:17.311Z,98909.84
2023-04-12T07:23:44.515Z,98897.81
2023-04-12T07:26:11.209Z,98892.09
2023-04-12T07:28:39.168Z,98887.38
2023-04-12T07:31:06.904Z,98897.53
2023-04-12T07:33:35.888Z,98887.31
2023-04-12T07:36:03.604Z,98880.94
2023-04-12T07:38:30.702Z,98892.44
2023-04-12T07:40:57.531Z,98883.38
2023-04-12T07:43:24.180Z,98873.00
2023-04-12T07:45:50.978Z,98863.78
2023-04-12T07:48:17.920Z,98873.88
2023-04-12T07:50:44.591Z,98865.69
2023-04-12T07:53:22.112Z,98866.75
2023-04-12T07:55:51.490Z,98868.00
2023-04-12T07:58:18.851Z,98869.25
2023-04-12T08:00:46.103Z,98866.56
2023-04-12T08:03:14.391Z,98865.09
2023-04-12T08:05:41.292Z,98858.13
2023-04-12T08:08:10.057Z,98848.34
2023-04-12T08:10:40.448Z,98850.13
2023-04-12T08:13:07.421Z,98850.88
2023-04-12T08:15:34.467Z,98842.06
2023-04-12T08:18:01.967Z,98836.47
2023-04-12T08:20:28.712Z,98836.16
2023-04-12T08:22:55.454Z,98840.66
2023-04-12T08:25:22.488Z,98834.53
2023-04-12T08:27:50.864Z,98834.25
2023-04-12T08:30:18.510Z,98834.38
2023-04-12T08:32:45.258Z,98823.88
2023-04-12T08:35:12.199Z,98819.50
2023-04-12T08:37:38.965Z,98818.88
2023-04-12T08:40:09.354Z,98820.06
2023-04-12T08:42:39.760Z,98812.31
2023-04-12T08:45:11.714Z,98812.34
2023-04-12T08:47:43.129Z,98809.34
2023-04-12T08:50:13.915Z,98804.44
2023-04-12T08:52:41.950Z,98792.28
2023-04-12T08:55:10.074Z,98795.94
2023-04-12T08:57:37.271Z,98793.97
2023-04-12T09:00:05.115Z,98791.34
2023-04-12T09:02:31.905Z,98780.53
2023-04-12T09:04:58.921Z,98773.91
2023-04-12T09:07:30.484Z,98773.63
2023-04-12T09:09:58.524Z,98775.00
2023-04-12T09:12:26.352Z,98765.19
2023-04-12T09:15:13.658Z,98758.00
2023-04-12T09:17:41.665Z,98758.44
2023-04-12T09:20:17.592Z,98741.72
2023-04-12T09:22:46.522Z,98746.31
2023-04-12T09:25:14.352Z,98739.94
2023-04-12T09:27:52.072Z,98732.25
2023-04-12T09:30:19.886Z,98729.63
2023-04-12T09:32:49.591Z,98732.00
2023-04-12T09:35:16.886Z,98723.97
2023-04-12T09:37:43.611Z,98714.81
2023-04-12T09:40:11.264Z,98708.34
2023-04-12T09:42:52.296Z,98706.91
2023-04-12T09:45:25.298Z,98711.19
2023-04-12T09:47:52.857Z,98703.06
2023-04-12T09:50:35.784Z,98704.34
2023-04-12T09:53:04.184Z,98698.59
2023-04-12T09:55:32.369Z,98680.56
2023-04-12T09:58:02.933Z,98678.25
2023-04-12T10:00:30.737Z,98683.97
2023-04-12T10:02:57.805Z,98674.78
2023-04-12T10:05:26.565Z,98667.72
2023-04-12T10:07:54.961Z,98667.81
2023-04-12T10:10:22.785Z,98663.97
2023-04-12T10:12:50.599Z,98658.63
2023-04-12T10:15:18.250Z,98655.84
2023-04-12T10:17:47.241Z,98647.84
2023-04-12T10:20:15.428Z,98644.03
2023-04-12T10:22:43.972Z,98647.59
2023-04-12T10:25:13.080Z,98629.97
2023-04-12T10:27:41.528Z,98634.53
2023-04-12T10:30:27.671Z,98618.88
2023-04-12T10:33:03.634Z,98620.09
2023-04-12T10:35:48.881Z,98619.47
2023-04-12T10:38:16.308Z,98621.00
2023-04-12T10:41:11.459Z,98616.00
2023-04-12T10:43:38.535Z,98617.06
2023-04-12T10:46:06.840Z,98610.19
2023-04-12T10:48:40.519Z,98618.41
2023-04-12T10:51:25.606Z,98608.97
2023-04-12T10:54:09.713Z,98596.97
2023-04-12T10:56:41.095Z,98593.19
2023-04-12T10:59:14.477Z,98588.53
2023-04-12T11:02:08.423Z,98591.19
2023-04-12T11:04:35.616Z,98575.47
2023-04-12T11:07:11.241Z,98566.25
2023-04-12T11:10:15.798Z,98570.63
2023-04-12T11:12:48.796Z,98558.94
2023-04-12T11:15:15.739Z,98555.72
2023-04-12T11:17:56.774Z,98549.44
2023-04-12T11:20:27.621Z,98547.03
2023-04-12T11:22:55.046Z,98540.81
2023-04-12T11:25:24.364Z,98535.66
2023-04-12T11:27:52.057Z,98532.28
2023-04-12T11:30:19.992Z,98523.97
2023-04-12T11:32:47.662Z,98525.53
2023-04-12T11:35:15.205Z,98522.78
2023-04-12T11:37:41.944Z,98519.75
2023-04-12T11:40:11.057Z,98507.34
2023-04-12T11:42:39.700Z,98505.53
2023-04-12T11:45:14.325Z,98506.47
2023-04-12T11:47:46.893Z,98506.50
2023-04-12T11:50:13.723Z,98512.69
2023-04-12T11:52:41.379Z,98502.22
2023-04-12T11:55:11.171Z,98497.78
2023-04-12T11:57:38.926Z,98490.25
2023-04-12T12:00:07.064Z,98484.72
2023-04-12T12:02:46.533Z,98482.16
2023-04-12T12:05:20.480Z,98474.94
2023-04-12T12:07:47.501Z,98479.69
2023-04-12T12:10:23.935Z,98476.88
2023-04-12T12:13:00.654Z,98485.88
2023-04-12T12:15:31.520Z,98480.94
2023-04-12T12:17:59.022Z,98476.47
2023-04-12T12:20:27.333Z,98474.78
2023-04-12T12:22:54.088Z,98462.09
2023-04-12T12:25:20.839Z,98472.34
2023-04-12T12:27:51.374Z,98457.19
2023-04-12T12:30:20.392Z,98451.59
2023-04-12T12:32:50.632Z,98446.88
2023-04-12T12:35:17.421Z,98442.69
2023-04-12T12:37:58.855Z,98438.28
2023-04-12T12:40:31.599Z,98422.25
2023-04-12T12:42:58.482Z,98425.91
2023-04-12T12:45:27.550Z,98422.38
2023-04-12T12:48:04.627Z,98411.97
2023-04-12T12:50:33.134Z,98416.63
2023-04-12T12:53:03.299Z,98408.72
2023-04-12T12:55:31.046Z,98404.09
2023-04-12T13:00:29.427Z,98404.28
2023-04-12T13:02:56.669Z,98402.50
2023-04-12T13:05:23.964Z,98395.16
2023-04-12T13:07:50.790Z,98382.00
2023-04-12T13:10:18.060Z,98383.78
2023-04-12T13:12:44.749Z,98373.03
2023-04-12T13:15:22.232Z,98371.75
2023-04-12T13:17:52.485Z,98373.38
2023-04-12T13:20:19.314Z,98368.53
2023-04-12T13:22:45.950Z,98371.28
2023-04-12T13:25:12.594Z,98363.25
2023-04-12T13:27:39.253Z,98360.59
2023-04-12T13:30:06.552Z,98361.53
2023-04-12T13:32:33.371Z,98365.50
2023-04-12T13:35:00.627Z,98354.13
2023-04-12T13:37:27.398Z,98354.22
2023-04-12T13:39:54.045Z,98351.22
2023-04-12T13:42:20.776Z,98349.63
2023-04-12T13:44:48.692Z,98339.63
2023-04-12T13:47:18.932Z,98344.75
2023-04-12T13:49:45.948Z,98342.56
2023-04-12T13:52:13.156Z,98327.38
2023-04-12T13:54:41.160Z,98338.56
2023-04-12T13:57:08.146Z,98337.84
2023-04-12T13:59:35.380Z,98335.47
2023-04-12T14:02:02.379Z,98336.47
2023-04-12T14:04:29.890Z,98336.91
2023-04-12T14:06:57.264Z,98336.38
2023-04-12T14:09:29.591Z,98332.97
2023-04-12T14:11:58.135Z,98329.69
2023-04-12T14:14:25.660Z,98320.31
2023-04-12T14:16:54.945Z,98311.41
2023-04-12T14:19:22.031Z,98308.25
2023-04-12T14:21:48.957Z,98301.25
2023-04-12T14:24:16.253Z,98297.63
2023-04-12T14:26:43.155Z,98295.25
2023-04-12T14:29:10.144Z,98300.72
2023-04-12T14:31:37.319Z,98290.84
2023-04-12T14:34:04.742Z,98288.66
2023-04-12T14:36:33.399Z,98285.28
2023-04-12T14:39:01.841Z,98283.06
2023-04-12T14:41:28.589Z,98281.03
2023-04-12T14:43:55.639Z,98276.88
2023-04-12T14:46:23.542Z,98273.53
2023-04-12T14:48:50.291Z,98267.13
2023-04-12T14:51:17.211Z,98264.06
2023-04-12T14:53:43.878Z,98271.75
2023-04-12T14:56:25.618Z,98254.13
2023-04-12T14:58:55.305Z,98252.13
2023-04-12T15:01:28.160Z,98249.66
2023-04-12T15:03:58.885Z,98248.06
2023-04-12T15:06:27.166Z,98242.44
2023-04-12T15:08:54.714Z,98241.75
2023-04-12T15:11:29.992Z,98236.94
2023-04-12T15:13:57.206Z,98240.56
2023-04-12T15:16:24.149Z,98233.22
2023-04-12T15:18:55.542Z,98233.06
2023-04-12T15:21:26.216Z,98223.50
2023-04-12T15:23:55.110Z,98213.59
2023-04-12T15:26:24.492Z,98223.63
2023-04-12T15:28:51.201Z,98222.94
2023-04-12T15:31:20.133Z,98218.44
2023-04-12T15:33:47.154Z,98216.88
2023-04-12T15:36:17.973Z,98214.88
2023-04-12T15:38:45.270Z,98212.34
2023-04-12T15:41:17.562Z,98207.16
2023-04-12T15:48:41.893Z,98206.25
2023-04-12T15:51:09.445Z,98201.41
2023-04-12T15:53:40.652Z,98190.13
2023-04-12T15:56:08.948Z,98189.63
2023-04-12T15:58:35.595Z,98191.25
2023-04-12T16:01:03.925Z,98195.25
2023-04-12T16:06:01.713Z,98176.22
2023-04-12T16:08:28.517Z,98178.97
2023-04-12T16:10:55.121Z,98189.22
2023-04-12T16:13:21.804Z,98180.19
2023-04-12T16:15:48.572Z,98173.78
2023-04-12T16:18:18.717Z,98178.28
2023-04-12T16:20:54.009Z,98180.28
2023-04-12T16:23:20.945Z,98180.22
2023-04-12T16:25:47.666Z,98172.38
2023-04-12T16:28:19.486Z,98182.00
2023-04-12T16:30:50.161Z,98172.97
2023-04-12T16:33:18.760Z,98175.28
2023-04-12T16:35:46.959Z,98168.81
2023-04-12T16:38:18.666Z,98168.63
2023-04-12T16:40:47.452Z,98163.50
2023-04-12T16:43:14.193Z,98166.81
2023-04-12T16:45:48.245Z,98161.28
2023-04-12T16:48:22.877Z,98154.34
2023-04-12T16:50:52.562Z,98144.53
2023-04-12T16:53:19.218Z,98139.09
2023-04-12T16:55:49.813Z,98141.53
2023-04-12T16:58:16.455Z,98143.31
2023-04-12T17:00:48.061Z,98146.19
2023-04-12T17:03:18.583Z,98141.28
2023-04-12T17:05:46.663Z,98142.03
2023-04-12T17:08:18.902Z,98143.09
2023-04-12T17:10:47.160Z,98140.59
2023-04-12T17:13:17.801Z,98140.88
2023-04-12T17:15:48.173Z,98145.91
2023-04-12T17:18:20.438Z,98145.31
2023-04-12T17:20:47.804Z,98150.88
2023-04-12T17:23:15.759Z,98150.50
2023-04-12T17:25:43.072Z,98152.53
2023-04-12T17:28:18.424Z,98158.91
2023-04-12T17:30:46.130Z,98157.88
2023-04-12T17:33:21.024Z,98158.34
2023-04-12T17:35:49.788Z,98164.31
2023-04-12T17:38:20.167Z,98164.44
2023-04-12T17:40:51.234Z,98160.25
2023-04-12T17:43:25.513Z,98163.56
2023-04-12T17:45:52.228Z,98169.50
2023-04-12T17:48:21.036Z,98162.84
2023-04-12T17:50:47.793Z,98166.59
2023-04-12T17:53:14.412Z,98169.38
2023-04-12T17:55:42.030Z,98169.94
2023-04-12T17:58:12.507Z,98168.38
2023-04-12T18:00:43.878Z,98170.53
2023-04-12T18:03:13.439Z,98172.72
2023-04-12T18:05:45.263Z,98180.03
2023-04-12T18:08:18.727Z,98173.38
2023-04-12T18:10:46.675Z,98170.50
2023-04-12T18:13:18.721Z,98169.72
2023-04-12T18:15:49.014Z,98166.56
2023-04-12T18:18:18.196Z,98173.34
2023-04-12T18:20:44.877Z,98166.69
2023-04-12T18:23:14.344Z,98160.75
2023-04-12T18:25:41.773Z,98154.88
2023-04-12T18:28:10.921Z,98161.38
2023-04-12T18:30:39.086Z,98155.78
2023-04-12T18:35:40.943Z,98167.41
2023-04-12T18:38:14.419Z,98166.34
2023-04-12T18:40:43.951Z,98159.09
2023-04-12T18:43:10.931Z,98160.75
2023-04-12T18:45:55.486Z,98168.03
2023-04-12T18:48:28.272Z,98166.66
2023-04-12T18:50:55.202Z,98152.69
2023-04-12T18:53:25.111Z,98155.63
2023-04-12T18:55:54.366Z,98166.44
2023-04-12T18:58:23.575Z,98163.25
2023-04-12T19:00:57.695Z,98163.25
2023-04-12T19:03:28.470Z,98174.28
2023-04-12T19:06:01.765Z,98177.50
2023-04-12T19:08:29.047Z,98172.13
2023-04-12T19:10:59.742Z,98178.06
2023-04-12T19:13:34.018Z,98180.47
2023-04-12T19:16:05.507Z,98167.84
2023-04-12T19:18:33.636Z,98165.69
2023-04-12T19:21:03.717Z,98167.84
2023-04-12T19:23:35.365Z,98164.63
2023-04-12T19:26:05.917Z,98163.28
2023-04-12T19:28:32.825Z,98162.47
2023-04-12T19:31:10.671Z,98157.09
2023-04-12T19:33:37.805Z,98157.38
2023-04-12T19:36:11.120Z,98156.28
2023-04-12T19:38:41.529Z,98151.19
2023-04-12T19:41:08.657Z,98142.59
2023-04-12T19:43:35.675Z,98139.91
2023-04-12T19:46:03.895Z,98144.19
2023-04-12T19:48:31.189Z,98143.13
2023-04-12T19:50:58.097Z,98149.31
2023-04-12T19:53:28.073Z,98146.34
2023-04-12T19:56:01.280Z,98147.97
2023-04-12T19:58:31.419Z,98145.53
2023-04-12T20:01:01.608Z,98143.94
2023-04-12T20:03:29.064Z,98150.41
2023-04-12T20:05:58.254Z,98140.44
2023-04-12T20:08:25.276Z,98144.22
2023-04-12T20:10:55.258Z,98140.97
2023-04-12T20:16:13.161Z,98139.91
2023-04-12T20:18:40.906Z,98142.84
2023-04-12T20:21:10.123Z,98134.53
2023-04-12T20:23:37.217Z,98143.13
2023-04-12T20:26:07.559Z,98146.06
2023-04-12T20:28:39.168Z,98142.28
2023-04-12T20:31:08.771Z,98134.22
2023-04-12T20:33:37.921Z,98133.38
2023-04-12T20:36:05.394Z,98137.38
2023-04-12T20:38:33.547Z,98136.59
2023-04-12T20:41:01.087Z,98140.88
2023-04-12T20:43:36.996Z,98133.06
2023-04-12T20:46:10.001Z,98127.69
2023-04-12T20:48:42.617Z,98125.19
2023-04-12T20:51:19.100Z,98122.22
2023-04-12T20:53:51.348Z,98117.38
2023-04-12T20:56:21.881Z,98110.66
2023-04-12T20:58:54.803Z,98104.19
2023-04-12T21:01:27.519Z,98106.63
2023-04-12T21:04:00.258Z,98106.34
2023-04-12T21:06:28.834Z,98099.63
2023-04-12T21:08:58.261Z,98099.09
2023-04-12T21:11:27.407Z,98106.34
2023-04-12T21:13:54.263Z,98102.28
2023-04-12T21:16:21.438Z,98100.72
2023-04-12T21:18:51.068Z,98099.09
2023-04-12T21:21:20.441Z,98099.06
2023-04-12T21:23:52.554Z,98095.31
2023-04-12T21:26:20.978Z,98097.13
2023-04-12T21:28:49.679Z,98093.38
2023-04-12T21:31:21.372Z,98081.59
2023-04-12T21:33:52.142Z,98096.31
2023-04-12T21:36:21.628Z,98096.88
2023-04-12T21:38:51.837Z,98090.94
2023-04-12T21:41:21.425Z,98093.88
2023-04-12T21:43:53.596Z,98085.00
2023-04-12T21:46:20.811Z,98083.59
2023-04-12T21:48:49.932Z,98082.84
2023-04-12T21:51:17.737Z,98078.28
2023-04-12T21:54:00.238Z,98073.19
2023-04-12T21:56:30.756Z,98064.81
2023-04-12T21:59:00.065Z,98066.72
2023-04-12T22:01:31.109Z,98067.22
2023-04-12T22:04:02.519Z,98069.09
2023-04-12T22:06:29.335Z,98069.63
2023-04-12T22:09:02.006Z,98077.34
2023-04-12T22:11:34.391Z,98075.16
2023-04-12T22:14:14.426Z,98076.25
2023-04-12T22:16:45.289Z,98071.94
2023-04-12T22:19:12.949Z,98075.13
2023-04-12T22:21:46.563Z,98072.44
2023-04-12T22:24:20.116Z,98068.16
2023-04-12T22:26:49.587Z,98067.06
2023-04-12T22:29:17.594Z,98067.88
2023-04-12T22:31:50.832Z,98065.97
2023-04-12T22:34:20.351Z,98065.72
2023-04-12T22:36:51.793Z,98077.25
2023-04-12T22:39:21.138Z,98061.94
2023-04-12T22:41:53.574Z,98072.41
2023-04-12T22:44:23.631Z,98067.00
2023-04-12T22:46:51.662Z,98069.41
2023-04-12T22:49:19.968Z,98075.53
2023-04-12T22:51:49.016Z,98080.38
2023-04-12T22:54:20.860Z,98064.78
2023-04-12T22:56:51.871Z,98058.34
2023-04-12T22:59:25.424Z,98055.69
2023-04-12T23:01:52.149Z,98057.88
2023-04-12T23:04:19.272Z,98058.38
2023-04-12T23:06:50.613Z,98063.72
2023-04-12T23:09:17.378Z,98063.19
2023-04-12T23:11:46.629Z,98070.47
2023-04-12T23:14:13.993Z,98062.69
2023-04-12T23:16:46.690Z,98057.84
2023-04-12T23:19:14.736Z,98061.88
2023-04-12T23:21:41.819Z,98053.06
2023-04-12T23:24:12.076Z,98058.41
2023-04-12T23:26:42.521Z,98058.41
2023-04-12T23:29:11.202Z,98052.78
2023-04-12T23:31:37.892Z,98046.59
2023-04-12T23:34:08.567Z,98050.63
2023-04-12T23:36:35.767Z,98047.16
2023-04-12T23:39:09.238Z,98052.53
2023-04-12T23:41:36.291Z,98048.50
2023-04-12T23:44:02.969Z,98039.94
2023-04-12T23:46:30.923Z,98035.13
2023-04-12T23:48:57.640Z,98045.31
2023-04-12T23:51:24.994Z,98039.59
2023-04-12T23:53:51.770Z,98039.34
2023-04-12T23:56:19.001Z,98032.41
2023-04-12T23:58:45.684Z,98028.38
